createdAt,value
2017-05-30T00:00:32.287Z,0
2017-05-30T00:01:44.831Z,0
2017-05-30T00:02:57.367Z,0
2017-05-30T00:04:09.275Z,0
2017-05-30T00:05:21.477Z,0
2017-05-30T00:06:33.716Z,0
2017-05-30T00:07:46.239Z,0
2017-05-30T00:08:58.785Z,0
2017-05-30T00:10:10.729Z,0
2017-05-30T00:11:23.289Z,0
2017-05-30T00:12:35.816Z,0
2017-05-30T00:13:48.338Z,0
2017-05-30T00:15:00.904Z,0
2017-05-30T00:16:13.149Z,0
2017-05-30T00:17:25.698Z,0
2017-05-30T00:18:37.922Z,0
2017-05-30T00:19:50.462Z,0
2017-05-30T00:21:02.984Z,0
2017-05-30T00:22:15.184Z,0
2017-05-30T00:23:27.426Z,0
2017-05-30T00:24:40.000Z,0
2017-05-30T00:25:52.568Z,0
2017-05-30T00:27:05.343Z,0
2017-05-30T00:28:16.985Z,0
2017-05-30T00:29:29.230Z,0
2017-05-30T00:30:41.776Z,0
2017-05-30T00:31:54.001Z,0
2017-05-30T00:33:06.551Z,0
2017-05-30T00:34:18.768Z,0
2017-05-30T00:35:30.388Z,0
2017-05-30T00:36:42.914Z,0
2017-05-30T00:37:55.463Z,0
2017-05-30T00:39:07.975Z,0
2017-05-30T00:40:19.926Z,0
2017-05-30T00:41:32.189Z,0
2017-05-30T00:42:44.747Z,0
2017-05-30T00:43:56.977Z,0
2017-05-30T00:45:09.227Z,0
2017-05-30T00:46:21.470Z,0
2017-05-30T00:47:33.998Z,0
2017-05-30T00:48:46.496Z,0
2017-05-30T00:49:59.053Z,0
2017-05-30T00:51:11.588Z,0
2017-05-30T00:52:23.835Z,0
2017-05-30T00:53:36.372Z,0
2017-05-30T00:54:48.928Z,0
2017-05-30T00:56:01.172Z,0
2017-05-30T00:57:13.694Z,0
2017-05-30T00:58:25.653Z,0
2017-05-30T00:59:38.186Z,0
2017-05-30T01:00:50.731Z,0
2017-05-30T01:02:03.252Z,0
2017-05-30T01:03:15.798Z,0
2017-05-30T01:04:28.319Z,0
2017-05-30T01:05:41.107Z,0
2017-05-30T01:06:53.636Z,0
2017-05-30T01:08:06.203Z,0
2017-05-30T01:09:18.431Z,0
2017-05-30T01:10:30.966Z,0
2017-05-30T01:11:43.483Z,0
2017-05-30T01:12:56.015Z,0
2017-05-30T01:14:08.583Z,0
2017-05-30T01:15:21.130Z,0
2017-05-30T01:16:33.668Z,0
2017-05-30T01:17:46.224Z,0
2017-05-30T01:18:58.863Z,0
2017-05-30T01:20:11.409Z,0
2017-05-30T01:21:23.940Z,0
2017-05-30T01:22:36.485Z,0
2017-05-30T01:23:48.743Z,0
2017-05-30T01:25:01.299Z,0
2017-05-30T01:26:13.876Z,0
2017-05-30T01:27:26.113Z,0
2017-05-30T01:28:38.335Z,0
2017-05-30T01:29:50.555Z,0
2017-05-30T01:31:02.509Z,0
2017-05-30T01:32:14.750Z,0
2017-05-30T01:33:26.996Z,0
2017-05-30T01:34:39.517Z,0
2017-05-30T01:35:51.741Z,0
2017-05-30T01:37:04.001Z,0
2017-05-30T01:38:16.209Z,0
2017-05-30T01:39:28.772Z,0
2017-05-30T01:40:41.296Z,0
2017-05-30T01:41:53.815Z,0
2017-05-30T01:43:06.660Z,0
2017-05-30T01:44:19.209Z,0
2017-05-30T01:45:31.751Z,0
2017-05-30T01:46:43.951Z,0
2017-05-30T01:47:56.473Z,0
2017-05-30T01:49:09.289Z,0
2017-05-30T01:50:21.539Z,0
2017-05-30T01:51:33.499Z,0
2017-05-30T01:52:46.055Z,0
2017-05-30T01:53:58.591Z,0
2017-05-30T01:55:11.113Z,0
2017-05-30T01:56:23.640Z,0
2017-05-30T01:57:36.182Z,0
2017-05-30T01:58:48.735Z,0
2017-05-30T02:00:01.233Z,0
2017-05-30T02:01:13.170Z,0
2017-05-30T02:02:25.491Z,0
2017-05-30T02:03:38.020Z,0
2017-05-30T02:04:50.567Z,0
2017-05-30T02:06:03.107Z,0
2017-05-30T02:07:15.636Z,0
2017-05-30T02:08:28.249Z,0
2017-05-30T02:09:40.772Z,0
2017-05-30T02:10:53.274Z,0
2017-05-30T02:12:05.521Z,0
2017-05-30T02:13:17.461Z,0
2017-05-30T02:14:29.707Z,0
2017-05-30T02:15:41.900Z,0
2017-05-30T02:16:54.145Z,0
2017-05-30T02:18:06.410Z,0
2017-05-30T02:19:18.641Z,0
2017-05-30T02:20:30.840Z,0
2017-05-30T02:21:43.384Z,0
2017-05-30T02:22:55.951Z,0
2017-05-30T02:24:08.552Z,0
2017-05-30T02:25:20.810Z,0
2017-05-30T02:26:33.344Z,0
2017-05-30T02:27:45.888Z,0
2017-05-30T02:28:58.430Z,0
2017-05-30T02:30:10.984Z,0
2017-05-30T02:31:22.939Z,0
2017-05-30T02:32:35.500Z,0
2017-05-30T02:33:48.043Z,0
2017-05-30T02:35:00.562Z,0
2017-05-30T02:36:12.201Z,0
2017-05-30T02:37:24.752Z,0
2017-05-30T02:38:37.315Z,0
2017-05-30T02:39:49.536Z,0
2017-05-30T02:41:02.069Z,0
2017-05-30T02:42:14.311Z,0
2017-05-30T02:43:27.161Z,5
2017-05-30T02:44:39.704Z,5
2017-05-30T02:45:52.248Z,5
2017-05-30T02:47:04.464Z,5
2017-05-30T02:48:16.711Z,5
2017-05-30T02:49:29.277Z,5
2017-05-30T02:50:41.510Z,5
2017-05-30T02:51:54.071Z,5
2017-05-30T02:53:06.624Z,10
2017-05-30T02:54:19.169Z,10
2017-05-30T02:55:31.693Z,10
2017-05-30T02:56:43.643Z,10
2017-05-30T02:57:56.188Z,10
2017-05-30T02:59:08.733Z,15
2017-05-30T03:00:21.281Z,15
2017-05-30T03:01:33.811Z,15
2017-05-30T03:02:46.343Z,15
2017-05-30T03:03:58.886Z,20
2017-05-30T03:05:11.450Z,20
2017-05-30T03:06:23.681Z,20
2017-05-30T03:07:36.217Z,20
2017-05-30T03:08:48.466Z,25
2017-05-30T03:10:01.018Z,25
2017-05-30T03:11:13.242Z,25
2017-05-30T03:12:25.462Z,25
2017-05-30T03:13:38.013Z,30
2017-05-30T03:14:50.554Z,30
2017-05-30T03:16:03.079Z,30
2017-05-30T03:17:15.597Z,30
2017-05-30T03:18:27.532Z,35
2017-05-30T03:19:39.751Z,35
2017-05-30T03:20:52.278Z,40
2017-05-30T03:22:03.921Z,40
2017-05-30T03:23:16.174Z,45
2017-05-30T03:24:28.109Z,50
2017-05-30T03:25:40.638Z,50
2017-05-30T03:26:53.187Z,55
2017-05-30T03:28:05.447Z,60
2017-05-30T03:29:17.376Z,60
2017-05-30T03:30:29.914Z,65
2017-05-30T03:31:42.464Z,65
2017-05-30T03:32:55.034Z,70
2017-05-30T03:34:07.263Z,75
2017-05-30T03:35:19.201Z,75
2017-05-30T03:36:31.717Z,85
2017-05-30T03:37:44.247Z,90
2017-05-30T03:38:56.771Z,100
2017-05-30T03:40:09.009Z,95
2017-05-30T03:41:21.555Z,95
2017-05-30T03:42:34.382Z,100
2017-05-30T03:43:46.927Z,105
2017-05-30T03:44:58.848Z,115
2017-05-30T03:46:11.089Z,120
2017-05-30T03:47:23.339Z,125
2017-05-30T03:48:35.860Z,125
2017-05-30T03:49:48.406Z,120
2017-05-30T03:51:00.931Z,120
2017-05-30T03:52:13.169Z,115
2017-05-30T03:53:25.411Z,115
2017-05-30T03:54:37.644Z,110
2017-05-30T03:55:50.192Z,110
2017-05-30T03:57:02.435Z,115
2017-05-30T03:58:14.361Z,120
2017-05-30T03:59:26.927Z,125
2017-05-30T04:00:38.866Z,135
2017-05-30T04:01:51.421Z,150
2017-05-30T04:03:03.954Z,150
2017-05-30T04:04:16.181Z,150
2017-05-30T04:05:28.153Z,150
2017-05-30T04:06:40.392Z,155
2017-05-30T04:07:52.628Z,160
2017-05-30T04:09:05.195Z,165
2017-05-30T04:10:17.754Z,155
2017-05-30T04:11:30.300Z,145
2017-05-30T04:12:42.823Z,135
2017-05-30T04:13:55.093Z,125
2017-05-30T04:15:07.345Z,125
2017-05-30T04:16:19.883Z,120
2017-05-30T04:17:32.116Z,120
2017-05-30T04:18:44.386Z,120
2017-05-30T04:19:56.908Z,120
2017-05-30T04:21:09.475Z,125
2017-05-30T04:22:22.008Z,125
2017-05-30T04:23:34.575Z,130
2017-05-30T04:24:46.814Z,130
2017-05-30T04:25:59.047Z,135
2017-05-30T04:27:11.296Z,145
2017-05-30T04:28:23.226Z,150
2017-05-30T04:29:35.793Z,155
2017-05-30T04:30:48.345Z,165
2017-05-30T04:32:00.605Z,190
2017-05-30T04:33:13.139Z,230
2017-05-30T04:34:25.373Z,260
2017-05-30T04:35:37.609Z,275
2017-05-30T04:36:50.147Z,285
2017-05-30T04:38:02.396Z,290
2017-05-30T04:39:14.661Z,290
2017-05-30T04:40:26.902Z,295
2017-05-30T04:41:39.448Z,275
2017-05-30T04:42:52.229Z,265
2017-05-30T04:44:04.772Z,255
2017-05-30T04:45:16.742Z,245
2017-05-30T04:46:29.239Z,230
2017-05-30T04:47:41.480Z,215
2017-05-30T04:48:54.006Z,200
2017-05-30T04:50:06.526Z,195
2017-05-30T04:51:19.094Z,190
2017-05-30T04:52:31.373Z,190
2017-05-30T04:53:43.324Z,190
2017-05-30T04:54:55.892Z,190
2017-05-30T04:56:08.458Z,190
2017-05-30T04:57:20.977Z,195
2017-05-30T04:58:33.200Z,200
2017-05-30T04:59:45.436Z,210
2017-05-30T05:00:57.940Z,215
2017-05-30T05:02:10.436Z,215
2017-05-30T05:03:22.974Z,215
2017-05-30T05:04:35.504Z,210
2017-05-30T05:05:47.728Z,210
2017-05-30T05:06:59.661Z,215
2017-05-30T05:08:11.908Z,215
2017-05-30T05:09:23.842Z,215
2017-05-30T05:10:36.062Z,215
2017-05-30T05:11:48.605Z,220
2017-05-30T05:13:00.844Z,235
2017-05-30T05:14:13.390Z,235
2017-05-30T05:15:26.183Z,245
2017-05-30T05:16:38.456Z,255
2017-05-30T05:17:50.685Z,270
2017-05-30T05:19:03.226Z,290
2017-05-30T05:20:15.475Z,275
2017-05-30T05:21:27.996Z,300
2017-05-30T05:22:40.520Z,340
2017-05-30T05:23:53.064Z,370
2017-05-30T05:25:05.301Z,395
2017-05-30T05:26:17.829Z,340
2017-05-30T05:27:30.354Z,300
2017-05-30T05:28:42.618Z,310
2017-05-30T05:29:55.189Z,305
2017-05-30T05:31:07.782Z,295
2017-05-30T05:32:20.038Z,280
2017-05-30T05:33:32.599Z,270
2017-05-30T05:34:45.126Z,270
2017-05-30T05:35:57.667Z,275
2017-05-30T05:37:10.225Z,285
2017-05-30T05:38:22.790Z,285
2017-05-30T05:39:35.038Z,290
2017-05-30T05:40:47.598Z,315
2017-05-30T05:42:00.142Z,310
2017-05-30T05:43:12.415Z,295
2017-05-30T05:44:24.671Z,300
2017-05-30T05:45:37.230Z,330
2017-05-30T05:46:49.762Z,315
2017-05-30T05:48:02.302Z,315
2017-05-30T05:49:14.531Z,320
2017-05-30T05:50:26.748Z,320
2017-05-30T05:51:39.268Z,310
2017-05-30T05:52:51.518Z,300
2017-05-30T05:54:04.063Z,300
2017-05-30T05:55:16.635Z,300
2017-05-30T05:56:28.880Z,310
2017-05-30T05:57:41.124Z,325
2017-05-30T05:58:53.898Z,325
2017-05-30T06:00:06.464Z,325
2017-05-30T06:01:18.664Z,325
2017-05-30T06:02:30.911Z,365
2017-05-30T06:03:43.456Z,365
2017-05-30T06:04:56.016Z,350
2017-05-30T06:06:08.636Z,345
2017-05-30T06:07:20.871Z,350
2017-05-30T06:08:33.111Z,360
2017-05-30T06:09:45.057Z,400
2017-05-30T06:10:57.597Z,415
2017-05-30T06:12:09.248Z,420
2017-05-30T06:13:21.491Z,420
2017-05-30T06:14:34.018Z,480
2017-05-30T06:15:46.013Z,510
2017-05-30T06:16:58.533Z,515
2017-05-30T06:18:11.082Z,595
2017-05-30T06:19:23.621Z,735
2017-05-30T06:20:36.188Z,540
2017-05-30T06:21:48.734Z,465
2017-05-30T06:23:00.957Z,655
2017-05-30T06:24:13.488Z,625
2017-05-30T06:25:25.761Z,595
2017-05-30T06:26:38.330Z,520
2017-05-30T06:27:50.591Z,590
2017-05-30T06:29:03.159Z,520
2017-05-30T06:30:15.706Z,530
2017-05-30T06:31:27.915Z,600
2017-05-30T06:32:40.458Z,660
2017-05-30T06:33:53.028Z,915
2017-05-30T06:35:04.974Z,1115
2017-05-30T06:36:17.510Z,1185
2017-05-30T06:37:29.764Z,1155
2017-05-30T06:38:41.410Z,1085
2017-05-30T06:39:53.701Z,575
2017-05-30T06:41:06.203Z,535
2017-05-30T06:42:18.426Z,680
2017-05-30T06:43:30.659Z,600
2017-05-30T06:44:43.206Z,585
2017-05-30T06:45:55.763Z,575
2017-05-30T06:47:07.697Z,555
2017-05-30T06:48:19.944Z,570
2017-05-30T06:49:32.518Z,1225
2017-05-30T06:50:45.077Z,1290
2017-05-30T06:51:57.636Z,1280
2017-05-30T06:53:09.864Z,580
2017-05-30T06:54:22.133Z,615
2017-05-30T06:55:34.056Z,630
2017-05-30T06:56:46.626Z,1155
2017-05-30T06:57:59.194Z,610
2017-05-30T06:59:11.744Z,1315
2017-05-30T07:00:24.312Z,1410
2017-05-30T07:01:36.557Z,1405
2017-05-30T07:02:48.807Z,1395
2017-05-30T07:04:01.091Z,1445
2017-05-30T07:05:13.673Z,1360
2017-05-30T07:06:25.956Z,725
2017-05-30T07:07:37.911Z,620
2017-05-30T07:08:50.462Z,1380
2017-05-30T07:10:02.147Z,1010
2017-05-30T07:11:14.403Z,625
2017-05-30T07:12:26.673Z,1260
2017-05-30T07:13:38.945Z,1290
2017-05-30T07:14:51.541Z,1290
2017-05-30T07:16:03.491Z,1165
2017-05-30T07:17:15.733Z,1620
2017-05-30T07:18:27.978Z,1665
2017-05-30T07:19:40.221Z,1660
2017-05-30T07:20:52.794Z,1050
2017-05-30T07:22:05.337Z,1845
2017-05-30T07:23:17.601Z,1785
2017-05-30T07:24:29.638Z,1005
2017-05-30T07:25:42.218Z,990
2017-05-30T07:26:54.488Z,735
2017-05-30T07:28:07.060Z,1090
2017-05-30T07:29:19.611Z,1395
2017-05-30T07:30:31.577Z,705
2017-05-30T07:31:43.804Z,675
2017-05-30T07:32:56.347Z,600
2017-05-30T07:34:08.917Z,575
2017-05-30T07:35:21.501Z,595
2017-05-30T07:36:34.044Z,1655
2017-05-30T07:37:46.289Z,1705
2017-05-30T07:38:58.584Z,1700
2017-05-30T07:40:11.154Z,1800
2017-05-30T07:41:23.395Z,1785
2017-05-30T07:42:35.651Z,1765
2017-05-30T07:43:47.918Z,1920
2017-05-30T07:45:00.165Z,1955
2017-05-30T07:46:12.436Z,1445
2017-05-30T07:47:24.982Z,995
2017-05-30T07:48:36.947Z,2040
2017-05-30T07:49:49.502Z,780
2017-05-30T07:51:02.064Z,1955
2017-05-30T07:52:14.607Z,1975
2017-05-30T07:53:26.557Z,880
2017-05-30T07:54:39.130Z,950
2017-05-30T07:55:51.702Z,2205
2017-05-30T07:57:04.290Z,2200
2017-05-30T07:58:16.836Z,2105
2017-05-30T07:59:29.155Z,2095
2017-05-30T08:00:41.709Z,2135
2017-05-30T08:01:54.276Z,2030
2017-05-30T08:03:06.898Z,2075
2017-05-30T08:04:18.848Z,2120
2017-05-30T08:05:31.418Z,2160
2017-05-30T08:06:43.364Z,2065
2017-05-30T08:07:55.653Z,2100
2017-05-30T08:09:07.906Z,2050
2017-05-30T08:10:20.152Z,2120
2017-05-30T08:11:32.090Z,2155
2017-05-30T08:12:44.642Z,2170
2017-05-30T08:13:57.186Z,2145
2017-05-30T08:15:09.488Z,2070
2017-05-30T08:16:21.479Z,2085
2017-05-30T08:17:34.046Z,2090
2017-05-30T08:18:46.617Z,2305
2017-05-30T08:19:59.169Z,2175
2017-05-30T08:21:11.420Z,2130
2017-05-30T08:22:23.717Z,1950
2017-05-30T08:23:35.984Z,2210
2017-05-30T08:24:48.234Z,2225
2017-05-30T08:26:00.496Z,2240
2017-05-30T08:27:13.042Z,2350
2017-05-30T08:28:25.591Z,2295
2017-05-30T08:29:37.558Z,2300
2017-05-30T08:30:50.133Z,2245
2017-05-30T08:32:02.076Z,2315
2017-05-30T08:33:13.738Z,2455
2017-05-30T08:34:26.024Z,2390
2017-05-30T08:35:38.292Z,2385
2017-05-30T08:36:50.879Z,2335
2017-05-30T08:38:02.851Z,2405
2017-05-30T08:39:15.129Z,2420
2017-05-30T08:40:27.100Z,2455
2017-05-30T08:41:39.646Z,2575
2017-05-30T08:42:51.581Z,2640
2017-05-30T08:44:03.843Z,2520
2017-05-30T08:45:16.433Z,2480
2017-05-30T08:46:28.701Z,2450
2017-05-30T08:47:40.948Z,2550
2017-05-30T08:48:53.195Z,2420
2017-05-30T08:50:05.434Z,2455
2017-05-30T08:51:17.714Z,2255
2017-05-30T08:52:30.001Z,2495
2017-05-30T08:53:42.545Z,2635
2017-05-30T08:54:55.129Z,2635
2017-05-30T08:56:07.069Z,2510
2017-05-30T08:57:19.014Z,2395
2017-05-30T08:58:31.568Z,2530
2017-05-30T08:59:44.148Z,2670
2017-05-30T09:00:56.428Z,2700
2017-05-30T09:02:08.378Z,2775
2017-05-30T09:03:20.647Z,2655
2017-05-30T09:04:32.896Z,1490
2017-05-30T09:05:45.157Z,2250
2017-05-30T09:06:57.411Z,1265
2017-05-30T09:08:09.980Z,995
2017-05-30T09:09:21.954Z,1105
2017-05-30T09:10:34.220Z,2530
2017-05-30T09:11:46.187Z,2830
2017-05-30T09:12:58.454Z,2745
2017-05-30T09:14:10.725Z,2990
2017-05-30T09:15:22.699Z,1590
2017-05-30T09:16:34.678Z,1020
2017-05-30T09:17:47.225Z,1300
2017-05-30T09:18:59.470Z,3000
2017-05-30T09:20:11.741Z,2865
2017-05-30T09:21:24.007Z,1065
2017-05-30T09:22:35.679Z,2900
2017-05-30T09:23:48.224Z,3080
2017-05-30T09:25:00.741Z,2945
2017-05-30T09:26:13.319Z,3000
2017-05-30T09:27:25.262Z,3050
2017-05-30T09:28:37.830Z,2955
2017-05-30T09:29:50.404Z,3015
2017-05-30T09:31:02.682Z,3310
2017-05-30T09:32:15.248Z,1250
2017-05-30T09:33:27.819Z,3005
2017-05-30T09:34:39.813Z,3280
2017-05-30T09:35:51.487Z,3250
2017-05-30T09:37:03.176Z,3060
2017-05-30T09:38:15.751Z,2985
2017-05-30T09:39:28.000Z,3075
2017-05-30T09:40:40.000Z,2905
2017-05-30T09:41:52.267Z,3055
2017-05-30T09:43:04.541Z,3130
2017-05-30T09:44:16.512Z,985
2017-05-30T09:45:28.777Z,790
2017-05-30T09:46:41.347Z,700
2017-05-30T09:47:52.994Z,620
2017-05-30T09:49:05.241Z,580
2017-05-30T09:50:17.495Z,695
2017-05-30T09:51:29.456Z,3280
2017-05-30T09:52:41.704Z,3265
2017-05-30T09:53:54.290Z,920
2017-05-30T09:55:06.269Z,1620
2017-05-30T09:56:18.535Z,2850
2017-05-30T09:57:30.802Z,585
2017-05-30T09:58:43.055Z,555
2017-05-30T09:59:55.307Z,760
2017-05-30T10:01:07.578Z,2115
2017-05-30T10:02:20.165Z,3290
2017-05-30T10:03:32.440Z,2995
2017-05-30T10:04:44.711Z,1110
2017-05-30T10:05:56.957Z,1000
2017-05-30T10:07:09.208Z,885
2017-05-30T10:08:21.170Z,720
2017-05-30T10:09:33.412Z,765
2017-05-30T10:10:45.685Z,850
2017-05-30T10:11:58.254Z,825
2017-05-30T10:13:10.810Z,785
2017-05-30T10:14:23.032Z,815
2017-05-30T10:15:35.577Z,930
2017-05-30T10:16:47.519Z,1745
2017-05-30T10:17:59.740Z,980
2017-05-30T10:19:11.961Z,840
2017-05-30T10:20:23.887Z,745
2017-05-30T10:21:36.456Z,690
2017-05-30T10:22:49.018Z,610
2017-05-30T10:24:01.297Z,535
2017-05-30T10:25:13.534Z,545
2017-05-30T10:26:26.069Z,635
2017-05-30T10:27:38.326Z,830
2017-05-30T10:28:50.861Z,795
2017-05-30T10:30:03.129Z,710
2017-05-30T10:31:15.704Z,640
2017-05-30T10:32:27.634Z,605
2017-05-30T10:33:39.894Z,665
2017-05-30T10:34:52.480Z,800
2017-05-30T10:36:05.048Z,955
2017-05-30T10:37:17.604Z,2195
2017-05-30T10:38:29.867Z,860
2017-05-30T10:39:41.839Z,705
2017-05-30T10:40:54.364Z,665
2017-05-30T10:42:06.931Z,820
2017-05-30T10:43:19.480Z,995
2017-05-30T10:44:31.747Z,575
2017-05-30T10:45:44.019Z,500
2017-05-30T10:46:56.570Z,405
2017-05-30T10:48:08.515Z,340
2017-05-30T10:49:20.463Z,285
2017-05-30T10:50:32.715Z,200
2017-05-30T10:51:44.970Z,160
2017-05-30T10:52:56.941Z,135
2017-05-30T10:54:09.213Z,130
2017-05-30T10:55:21.441Z,140
2017-05-30T10:56:33.986Z,90
2017-05-30T10:57:46.540Z,35
2017-05-30T10:58:58.503Z,20
2017-05-30T11:00:11.048Z,50
2017-05-30T11:01:23.595Z,75
2017-05-30T11:02:35.864Z,120
2017-05-30T11:03:48.127Z,205
2017-05-30T11:05:00.378Z,315
2017-05-30T11:06:12.704Z,250
2017-05-30T11:07:24.945Z,65
2017-05-30T11:08:36.898Z,20
2017-05-30T11:09:49.133Z,35
2017-05-30T11:11:01.404Z,60
2017-05-30T11:12:13.610Z,105
2017-05-30T11:13:25.871Z,120
2017-05-30T11:14:38.121Z,135
2017-05-30T11:15:50.671Z,155
2017-05-30T11:17:02.916Z,155
2017-05-30T11:18:14.266Z,145
2017-05-30T11:19:26.529Z,145
2017-05-30T11:20:39.096Z,150
2017-05-30T11:21:51.629Z,140
2017-05-30T11:23:04.217Z,125
2017-05-30T11:24:16.141Z,115
2017-05-30T11:25:28.362Z,115
2017-05-30T11:26:40.607Z,120
2017-05-30T11:27:52.857Z,125
2017-05-30T11:29:05.404Z,130
2017-05-30T11:30:17.364Z,145
2017-05-30T11:31:29.896Z,150
2017-05-30T11:32:42.116Z,150
2017-05-30T11:33:54.352Z,150
2017-05-30T11:35:06.898Z,150
2017-05-30T11:36:19.145Z,150
2017-05-30T11:37:31.397Z,145
2017-05-30T11:38:43.629Z,150
2017-05-30T11:39:55.845Z,155
2017-05-30T11:41:08.389Z,165
2017-05-30T11:42:20.632Z,175
2017-05-30T11:43:32.576Z,180
2017-05-30T11:44:45.118Z,185
2017-05-30T11:45:57.696Z,190
2017-05-30T11:47:09.316Z,195
2017-05-30T11:48:21.561Z,200
2017-05-30T11:49:33.788Z,205
2017-05-30T11:50:46.045Z,215
2017-05-30T11:51:58.273Z,215
2017-05-30T11:53:10.798Z,215
2017-05-30T11:54:23.044Z,225
2017-05-30T11:55:34.986Z,235
2017-05-30T11:56:47.526Z,250
2017-05-30T11:58:00.070Z,260
2017-05-30T11:59:12.618Z,265
2017-05-30T12:00:24.274Z,265
2017-05-30T12:01:36.832Z,260
2017-05-30T12:02:49.086Z,250
2017-05-30T12:04:01.612Z,245
2017-05-30T12:05:14.156Z,245
2017-05-30T12:06:26.677Z,245
2017-05-30T12:07:39.215Z,230
2017-05-30T12:08:51.463Z,225
2017-05-30T12:10:03.705Z,240
2017-05-30T12:11:16.254Z,255
2017-05-30T12:12:28.472Z,270
2017-05-30T12:13:40.700Z,295
2017-05-30T12:14:53.245Z,320
2017-05-30T12:16:05.494Z,355
2017-05-30T12:17:17.437Z,395
2017-05-30T12:18:29.962Z,445
2017-05-30T12:19:41.921Z,505
2017-05-30T12:20:54.150Z,560
2017-05-30T12:22:06.071Z,610
2017-05-30T12:23:18.621Z,660
2017-05-30T12:24:31.163Z,730
2017-05-30T12:25:43.414Z,865
2017-05-30T12:26:55.975Z,930
2017-05-30T12:28:07.304Z,930
2017-05-30T12:29:19.849Z,955
2017-05-30T12:30:31.871Z,995
2017-05-30T12:31:44.435Z,895
2017-05-30T12:32:56.981Z,835
2017-05-30T12:34:09.230Z,800
2017-05-30T12:35:21.473Z,800
2017-05-30T12:36:34.052Z,820
2017-05-30T12:37:46.585Z,830
2017-05-30T12:38:58.817Z,835
2017-05-30T12:40:11.361Z,830
2017-05-30T12:41:23.898Z,810
2017-05-30T12:42:36.144Z,785
2017-05-30T12:43:48.101Z,770
2017-05-30T12:45:00.645Z,755
2017-05-30T12:46:12.867Z,740
2017-05-30T12:47:25.414Z,725
2017-05-30T12:48:37.674Z,725
2017-05-30T12:49:50.224Z,735
2017-05-30T12:51:02.473Z,740
2017-05-30T12:52:15.014Z,730
2017-05-30T12:53:27.565Z,730
2017-05-30T12:54:40.110Z,740
2017-05-30T12:55:52.032Z,735
2017-05-30T12:57:04.269Z,705
2017-05-30T12:58:16.215Z,685
2017-05-30T12:59:28.773Z,680
2017-05-30T13:00:40.435Z,670
2017-05-30T13:01:52.407Z,655
2017-05-30T13:03:04.956Z,645
2017-05-30T13:04:16.906Z,665
2017-05-30T13:05:29.145Z,690
2017-05-30T13:06:40.776Z,700
2017-05-30T13:07:53.020Z,710
2017-05-30T13:09:05.283Z,775
2017-05-30T13:10:17.549Z,885
2017-05-30T13:11:29.825Z,985
2017-05-30T13:12:42.071Z,990
2017-05-30T13:13:54.345Z,955
2017-05-30T13:15:06.597Z,935
2017-05-30T13:16:18.567Z,915
2017-05-30T13:17:30.808Z,900
2017-05-30T13:18:43.007Z,905
2017-05-30T13:19:55.570Z,930
2017-05-30T13:21:08.150Z,970
2017-05-30T13:22:20.720Z,1015
2017-05-30T13:23:33.242Z,1285
2017-05-30T13:24:45.779Z,1415
2017-05-30T13:25:58.359Z,1390
2017-05-30T13:27:10.618Z,1850
2017-05-30T13:28:22.864Z,1555
2017-05-30T13:29:34.796Z,1265
2017-05-30T13:30:46.438Z,1715
2017-05-30T13:31:58.676Z,1330
2017-05-30T13:33:10.934Z,1225
2017-05-30T13:34:23.507Z,1185
2017-05-30T13:35:36.077Z,1120
2017-05-30T13:36:48.318Z,1040
2017-05-30T13:38:00.569Z,975
2017-05-30T13:39:12.566Z,955
2017-05-30T13:40:24.525Z,965
2017-05-30T13:41:37.056Z,1045
2017-05-30T13:42:48.993Z,1080
2017-05-30T13:44:01.245Z,1090
2017-05-30T13:45:13.794Z,1030
2017-05-30T13:46:26.361Z,960
2017-05-30T13:47:38.587Z,910
2017-05-30T13:48:51.105Z,940
2017-05-30T13:50:03.648Z,1035
2017-05-30T13:51:16.194Z,1680
2017-05-30T13:52:28.740Z,1425
2017-05-30T13:53:40.986Z,3450
2017-05-30T13:54:53.510Z,2640
2017-05-30T13:56:05.755Z,1895
2017-05-30T13:57:17.978Z,4505
2017-05-30T13:58:30.511Z,2985
2017-05-30T13:59:42.490Z,3155
2017-05-30T14:00:55.029Z,2060
2017-05-30T14:02:07.581Z,1895
2017-05-30T14:03:18.923Z,3485
2017-05-30T14:04:31.449Z,2680
2017-05-30T14:05:43.116Z,1540
2017-05-30T14:06:55.345Z,1095
2017-05-30T14:08:07.586Z,1985
2017-05-30T14:09:19.216Z,2645
2017-05-30T14:10:31.203Z,3325
2017-05-30T14:11:43.129Z,3290
2017-05-30T14:12:55.649Z,3100
2017-05-30T14:14:08.194Z,2140
2017-05-30T14:15:20.466Z,1495
2017-05-30T14:16:33.036Z,1185
2017-05-30T14:17:45.279Z,1040
2017-05-30T14:18:57.520Z,965
2017-05-30T14:20:10.073Z,855
2017-05-30T14:21:22.645Z,755
2017-05-30T14:22:35.192Z,690
2017-05-30T14:23:47.434Z,780
2017-05-30T14:25:00.011Z,885
2017-05-30T14:26:12.280Z,1095
2017-05-30T14:27:24.221Z,1135
2017-05-30T14:28:36.800Z,1025
2017-05-30T14:29:49.364Z,1075
2017-05-30T14:31:01.660Z,1320
2017-05-30T14:32:13.883Z,1175
2017-05-30T14:33:26.160Z,1200
2017-05-30T14:34:38.726Z,1140
2017-05-30T14:35:51.324Z,1355
2017-05-30T14:37:03.593Z,2040
2017-05-30T14:38:16.177Z,1285
2017-05-30T14:39:28.709Z,1060
2017-05-30T14:40:41.255Z,1610
2017-05-30T14:41:53.793Z,2450
2017-05-30T14:43:06.350Z,1700
2017-05-30T14:44:18.614Z,1295
2017-05-30T14:45:31.160Z,995
2017-05-30T14:46:43.707Z,995
2017-05-30T14:47:56.272Z,970
2017-05-30T14:49:08.823Z,875
2017-05-30T14:50:21.069Z,820
2017-05-30T14:51:33.589Z,790
2017-05-30T14:52:45.516Z,810
2017-05-30T14:53:57.478Z,805
2017-05-30T14:55:09.708Z,765
2017-05-30T14:56:21.948Z,810
2017-05-30T14:57:34.495Z,885
2017-05-30T14:58:47.058Z,1035
2017-05-30T14:59:59.615Z,1045
2017-05-30T15:01:11.836Z,885
2017-05-30T15:02:24.379Z,725
2017-05-30T15:03:36.941Z,620
2017-05-30T15:04:49.523Z,680
2017-05-30T15:06:01.473Z,685
2017-05-30T15:07:14.015Z,600
2017-05-30T15:08:26.582Z,540
2017-05-30T15:09:38.820Z,595
2017-05-30T15:10:51.070Z,715
2017-05-30T15:12:03.613Z,720
2017-05-30T15:13:15.291Z,690
2017-05-30T15:14:27.531Z,630
2017-05-30T15:15:39.758Z,570
2017-05-30T15:16:52.025Z,560
2017-05-30T15:18:04.278Z,600
2017-05-30T15:19:16.544Z,685
2017-05-30T15:20:28.808Z,745
2017-05-30T15:21:41.037Z,750
2017-05-30T15:22:53.275Z,750
2017-05-30T15:24:05.533Z,740
2017-05-30T15:25:17.506Z,685
2017-05-30T15:26:30.050Z,650
2017-05-30T15:27:42.620Z,610
2017-05-30T15:28:54.916Z,630
2017-05-30T15:30:07.463Z,655
2017-05-30T15:31:19.706Z,520
2017-05-30T15:32:31.969Z,540
2017-05-30T15:33:44.545Z,465
2017-05-30T15:34:56.487Z,600
2017-05-30T15:36:08.758Z,535
2017-05-30T15:37:21.011Z,645
2017-05-30T15:38:32.973Z,1710
2017-05-30T15:39:45.270Z,1230
2017-05-30T15:40:57.526Z,965
2017-05-30T15:42:09.772Z,545
2017-05-30T15:43:22.339Z,405
2017-05-30T15:44:34.535Z,565
2017-05-30T15:45:47.049Z,600
2017-05-30T15:46:59.619Z,390
2017-05-30T15:48:11.289Z,415
2017-05-30T15:49:23.251Z,400
2017-05-30T15:50:35.514Z,405
2017-05-30T15:51:47.732Z,400
2017-05-30T15:53:00.281Z,380
2017-05-30T15:54:12.505Z,360
2017-05-30T15:55:25.069Z,325
2017-05-30T15:56:37.294Z,300
2017-05-30T15:57:49.820Z,270
2017-05-30T15:59:02.364Z,265
2017-05-30T16:00:14.908Z,270
2017-05-30T16:01:27.451Z,265
2017-05-30T16:02:39.419Z,255
2017-05-30T16:03:51.691Z,240
2017-05-30T16:05:04.242Z,210
2017-05-30T16:06:16.163Z,200
2017-05-30T16:07:28.458Z,200
2017-05-30T16:08:40.957Z,205
2017-05-30T16:09:53.503Z,215
2017-05-30T16:11:05.745Z,225
2017-05-30T16:12:17.983Z,230
2017-05-30T16:13:30.557Z,240
2017-05-30T16:14:42.804Z,250
2017-05-30T16:15:55.371Z,260
2017-05-30T16:17:08.254Z,270
2017-05-30T16:18:20.197Z,285
2017-05-30T16:19:32.437Z,280
2017-05-30T16:20:44.380Z,285
2017-05-30T16:21:56.915Z,285
2017-05-30T16:23:08.563Z,290
2017-05-30T16:24:20.204Z,290
2017-05-30T16:25:32.767Z,290
2017-05-30T16:26:45.338Z,290
2017-05-30T16:27:57.588Z,285
2017-05-30T16:29:10.115Z,280
2017-05-30T16:30:22.379Z,275
2017-05-30T16:31:34.622Z,265
2017-05-30T16:32:47.142Z,255
2017-05-30T16:33:59.410Z,245
2017-05-30T16:35:11.948Z,235
2017-05-30T16:36:24.200Z,220
2017-05-30T16:37:36.181Z,210
2017-05-30T16:38:48.727Z,200
2017-05-30T16:40:01.265Z,190
2017-05-30T16:41:13.820Z,185